Time;durP1;ratioP1;P1;durP2;ratioP2;P2;SDS_P1;SDS_P2;PMS_P1;PMS_P2;Temp;Humidity;BMP_temperature;BMP_pressure;BME280_temperature;BME280_humidity;BME280_pressure;Samples;Min_cycle;Max_cycle;Signal;HPM_P1;HPM_P2
2023/02/17 00:02:27;;;;;;;93.10;41.70;;;;;;;1.37;75.22;100695.17;134063;1302;22397;-76
2023/02/17 00:05:27;;;;;;;79.00;36.40;;;;;;;1.32;75.81;100685.90;134029;1302;22485;-76
2023/02/17 00:08:28;;;;;;;73.90;34.90;;;;;;;1.21;75.78;100685.02;134082;1285;22236;-76
2023/02/17 00:11:29;;;;;;;85.20;36.00;;;;;;;1.14;75.84;100686.29;133982;1301;22547;-76
2023/02/17 00:14:29;;;;;;;71.40;34.80;;;;;;;1.09;76.04;100685.34;134000;1299;22931;-76
2023/02/17 00:17:30;;;;;;;75.90;35.90;;;;;;;1.04;75.94;100684.61;134035;1300;22168;-76
2023/02/17 00:20:30;;;;;;;69.70;34.70;;;;;;;0.98;76.33;100679.91;134001;1300;22493;-76
2023/02/17 00:23:31;;;;;;;70.30;34.10;;;;;;;0.91;76.02;100686.29;134033;1300;23404;-76
2023/02/17 00:26:32;;;;;;;70.80;33.90;;;;;;;0.81;76.10;100686.17;134055;1301;22375;-76
2023/02/17 00:29:33;;;;;;;69.80;33.90;;;;;;;0.70;76.42;100693.27;133776;1301;23202;-76
2023/02/17 00:32:33;;;;;;;75.30;36.00;;;;;;;0.60;76.48;100688.42;134033;1301;22516;-77
2023/02/17 00:35:38;;;;;;;76.10;35.50;;;;;;;0.45;76.57;100691.59;134008;1301;22561;-75
2023/02/17 00:38:39;;;;;;;74.90;35.20;;;;;;;0.37;76.81;100693.92;134033;1300;22424;-76
2023/02/17 00:41:39;;;;;;;83.40;37.70;;;;;;;0.35;77.02;100689.83;134018;1301;22231;-76
2023/02/17 00:44:40;;;;;;;84.00;38.70;;;;;;;0.37;76.97;100680.71;134035;1300;22818;-77
2023/02/17 00:47:40;;;;;;;84.00;41.30;;;;;;;0.39;77.13;100679.90;134043;1307;22386;-76
2023/02/17 00:50:43;;;;;;;72.90;36.40;;;;;;;0.39;77.21;100681.82;134025;1307;22369;-77
2023/02/17 00:53:44;;;;;;;74.80;35.00;;;;;;;0.39;77.41;100676.60;134008;1305;22538;-76
2023/02/17 00:56:45;;;;;;;69.70;32.90;;;;;;;0.39;77.25;100673.45;134021;1301;22356;-76
2023/02/17 00:59:45;;;;;;;73.40;35.60;;;;;;;0.37;77.63;100678.42;134023;1300;22994;-77
2023/02/17 01:02:48;;;;;;;79.60;37.00;;;;;;;0.35;77.81;100678.92;134006;1301;22366;-76
2023/02/17 01:05:53;;;;;;;75.60;35.70;;;;;;;0.34;77.74;100674.60;133739;1301;22425;-76
2023/02/17 01:08:54;;;;;;;90.30;40.00;;;;;;;0.37;77.96;100674.61;134052;1299;22206;-76
2023/02/17 01:11:55;;;;;;;63.00;30.40;;;;;;;0.42;77.99;100671.02;134059;1301;23164;-76
2023/02/17 01:14:55;;;;;;;66.90;34.10;;;;;;;0.44;77.62;100664.60;134008;1300;22445;-76
2023/02/17 01:17:57;;;;;;;99.30;42.90;;;;;;;0.42;78.03;100659.17;134014;1301;23134;-76
2023/02/17 01:20:58;;;;;;;76.50;34.80;;;;;;;0.44;78.11;100656.42;134027;1301;22365;-77
2023/02/17 01:24:01;;;;;;;83.60;37.70;;;;;;;0.47;78.25;100654.20;134059;1300;22481;-76
2023/02/17 01:27:02;;;;;;;78.00;36.90;;;;;;;0.52;78.35;100648.84;133997;1307;22422;-76
2023/02/17 01:30:03;;;;;;;76.80;35.00;;;;;;;0.56;78.37;100645.67;134003;1299;23712;-76
2023/02/17 01:33:04;;;;;;;73.70;34.20;;;;;;;0.59;78.46;100646.35;134054;1301;22981;-77
2023/02/17 01:36:07;;;;;;;73.60;35.80;;;;;;;0.57;78.23;100642.81;134094;1301;22365;-76
2023/02/17 01:39:08;;;;;;;71.20;34.90;;;;;;;0.58;78.59;100645.89;133720;1301;22245;-77
2023/02/17 01:42:18;;;;;;;70.60;34.90;;;;;;;0.60;78.76;100644.92;134034;1300;23101;-77
2023/02/17 01:45:19;;;;;;;72.70;34.80;;;;;;;0.64;78.74;100645.69;134019;1292;22403;-76
2023/02/17 01:48:31;;;;;;;69.40;32.90;;;;;;;0.69;78.76;100639.84;134019;1301;23049;-76
2023/02/17 01:51:35;;;;;;;74.00;34.50;;;;;;;0.74;78.94;100635.58;134069;1301;22440;-77
2023/02/17 01:54:51;;;;;;;71.80;33.80;;;;;;;0.77;78.71;100631.36;133777;1301;22375;-76
2023/02/17 01:57:56;;;;;;;64.80;32.70;;;;;;;0.81;78.80;100624.88;134059;1301;22411;-76
2023/02/17 02:01:00;;;;;;;70.00;31.80;;;;;;;0.83;79.03;100618.10;133755;1301;22225;-76
2023/02/17 02:04:04;;;;;;;69.40;33.10;;;;;;;0.82;78.90;100611.89;134006;1299;22391;-77
2023/02/17 02:07:13;;;;;;;73.60;34.00;;;;;;;0.84;78.99;100608.83;134012;1299;23088;-76
2023/02/17 02:10:17;;;;;;;59.50;31.70;;;;;;;0.87;79.05;100602.38;134059;1301;22267;-76
2023/02/17 02:13:17;;;;;;;64.10;32.00;;;;;;;0.87;79.20;100596.08;133785;1301;22978;-76
2023/02/17 02:16:38;;;;;;;66.20;31.40;;;;;;;0.85;79.04;100585.91;133750;1299;22422;-76
2023/02/17 02:20:03;;;;;;;72.00;32.60;;;;;;;0.87;79.34;100583.74;133990;1305;22188;-76
2023/02/17 02:23:20;;;;;;;71.40;32.30;;;;;;;0.89;79.34;100581.69;133758;1301;22440;-76
2023/02/17 02:26:41;;;;;;;66.10;32.40;;;;;;;0.94;79.17;100568.56;134052;1301;23164;-76
2023/02/17 02:29:44;;;;;;;63.10;31.30;;;;;;;0.97;79.46;100569.73;133849;1301;22398;-77
2023/02/17 02:33:06;;;;;;;67.00;32.10;;;;;;;0.99;79.48;100569.23;133732;1301;22409;-76
2023/02/17 02:36:22;;;;;;;64.60;32.80;;;;;;;1.03;79.50;100568.13;134043;1301;22369;-76
2023/02/17 02:39:29;;;;;;;69.50;32.30;;;;;;;1.07;79.62;100569.59;134071;1301;22449;-76
2023/02/17 02:42:29;;;;;;;62.90;32.30;;;;;;;1.11;79.62;100566.20;134062;1291;22370;-76
2023/02/17 02:45:30;;;;;;;63.40;32.60;;;;;;;1.16;79.60;100558.94;133783;1301;22405;-76
2023/02/17 02:48:31;;;;;;;;;;;;;;;1.19;79.38;100557.91;133890;1302;22483;-76
2023/02/17 02:51:34;;;;;;;73.10;35.10;;;;;;;1.17;79.73;100551.94;133862;1307;23077;-77
2023/02/17 02:54:38;;;;;;;67.90;34.00;;;;;;;1.17;79.72;100548.45;133764;1300;22415;-76
2023/02/17 02:57:50;;;;;;;69.80;33.40;;;;;;;1.22;79.55;100547.24;133769;1301;22403;-76
2023/02/17 03:01:02;;;;;;;74.60;34.50;;;;;;;1.28;79.70;100543.05;133764;1299;22430;-76
2023/02/17 03:04:10;;;;;;;71.50;32.60;;;;;;;1.32;79.60;100536.86;133997;1301;22403;-76
2023/02/17 03:07:21;;;;;;;72.80;35.10;;;;;;;1.35;79.46;100531.12;133801;1300;22992;-76
2023/02/17 03:10:22;;;;;;;67.40;32.90;;;;;;;1.37;79.67;100530.98;133906;1299;23147;-77
2023/02/17 03:13:23;;;;;;;62.80;31.70;;;;;;;1.38;79.57;100526.02;133771;1300;22467;-76
2023/02/17 03:16:25;;;;;;;66.70;32.10;;;;;;;1.39;79.77;100526.30;133738;1307;22505;-76
2023/02/17 03:19:27;;;;;;;;;;;;;;;1.40;79.81;100526.22;134048;1301;22488;-76
2023/02/17 03:22:30;;;;;;;;;;;;;;;1.43;79.83;100527.79;133771;1301;22478;-76
2023/02/17 03:25:30;;;;;;;69.90;31.60;;;;;;;1.42;79.73;100517.55;134030;1299;22392;-76
2023/02/17 03:28:31;;;;;;;60.60;29.90;;;;;;;1.42;79.95;100518.66;134006;1301;22494;-76
2023/02/17 03:31:32;;;;;;;66.90;32.70;;;;;;;1.41;80.11;100517.86;133611;1307;22458;-76
2023/02/17 03:34:33;;;;;;;;;;;;;;;1.42;80.30;100526.30;134034;1301;23396;-76
2023/02/17 03:37:33;;;;;;;42.60;22.50;;;;;;;1.47;80.08;100528.23;134097;1288;22465;-76
2023/02/17 03:40:34;;;;;;;61.60;29.90;;;;;;;1.50;80.28;100526.27;134047;1301;22412;-76
2023/02/17 03:43:34;;;;;;;66.30;31.50;;;;;;;1.52;80.30;100527.20;134018;1301;22255;-77
2023/02/17 03:46:38;;;;;;;66.90;32.50;;;;;;;1.55;80.37;100526.64;134049;1302;22322;-76
2023/02/17 03:49:39;;;;;;;72.20;33.40;;;;;;;1.60;80.52;100520.97;134034;1307;22593;-76
2023/02/17 03:52:39;;;;;;;61.50;31.00;;;;;;;1.58;80.37;100515.33;134021;1307;22258;-76
2023/02/17 03:55:40;;;;;;;64.20;32.40;;;;;;;1.59;80.39;100513.71;134034;1301;22425;-76
2023/02/17 03:58:41;;;;;;;63.30;31.00;;;;;;;1.65;80.54;100518.88;134025;1305;23695;-76
2023/02/17 04:01:42;;;;;;;64.80;31.20;;;;;;;1.67;80.69;100514.59;134023;1301;22366;-77
2023/02/17 04:04:45;;;;;;;60.90;31.30;;;;;;;1.69;80.78;100514.26;133772;1307;22385;-77
2023/02/17 04:07:45;;;;;;;57.90;29.90;;;;;;;1.72;80.95;100510.76;133716;1302;22425;-77
2023/02/17 04:10:50;;;;;;;61.70;31.50;;;;;;;1.75;80.64;100514.00;134010;1305;22500;-77
2023/02/17 04:13:51;;;;;;;62.10;30.40;;;;;;;1.76;80.75;100507.02;134037;1300;22441;-76
2023/02/17 04:16:51;;;;;;;62.90;30.20;;;;;;;1.76;80.79;100502.61;134060;1300;22530;-77
2023/02/17 04:19:52;;;;;;;54.60;28.30;;;;;;;1.79;80.81;100504.67;134012;1301;22438;-76
2023/02/17 04:22:52;;;;;;;59.50;29.80;;;;;;;1.78;80.86;100501.44;134022;1300;22391;-76
2023/02/17 04:25:53;;;;;;;58.00;29.30;;;;;;;1.79;81.06;100501.37;134027;1301;23017;-76
2023/02/17 04:28:53;;;;;;;54.30;28.10;;;;;;;1.83;80.99;100499.27;134017;1301;22388;-76
2023/02/17 04:31:54;;;;;;;55.40;29.70;;;;;;;1.85;81.21;100498.38;134045;1301;22542;-76
2023/02/17 04:34:55;;;;;;;56.40;30.80;;;;;;;1.85;81.20;100494.18;134007;1301;22478;-76
2023/02/17 04:37:55;;;;;;;59.80;31.00;;;;;;;1.87;81.19;100487.28;134056;1301;22278;-77
2023/02/17 04:40:57;;;;;;;60.80;31.50;;;;;;;1.89;81.25;100479.13;134053;1301;22366;-77
2023/02/17 04:43:57;;;;;;;60.00;30.70;;;;;;;1.92;81.42;100474.58;134025;1301;22376;-77
2023/02/17 04:46:58;;;;;;;61.70;30.70;;;;;;;1.96;81.38;100464.86;134029;1303;22496;-76
2023/02/17 04:49:58;;;;;;;64.20;31.60;;;;;;;1.98;81.42;100453.87;134025;1300;22411;-76
2023/02/17 04:52:59;;;;;;;60.20;32.10;;;;;;;2.02;81.72;100455.35;134058;1301;23275;-76
2023/02/17 04:55:59;;;;;;;59.00;32.60;;;;;;;2.10;81.77;100456.43;134020;1305;22411;-76
2023/02/17 04:59:00;;;;;;;59.50;29.00;;;;;;;2.14;81.96;100457.48;134028;1305;22239;-77
2023/02/17 05:02:01;;;;;;;57.90;30.80;;;;;;;2.19;81.38;100452.15;133994;1301;22437;-76
2023/02/17 05:05:02;;;;;;;54.40;28.80;;;;;;;2.21;81.77;100449.38;134012;1307;22392;-77
2023/02/17 05:08:03;;;;;;;55.80;30.30;;;;;;;2.23;81.57;100451.84;134004;1301;22380;-76
2023/02/17 05:11:03;;;;;;;;;;;;;;;2.28;81.78;100447.55;134006;1301;22485;-76
2023/02/17 05:14:04;;;;;;;62.30;30.20;;;;;;;2.32;82.00;100440.77;134017;1302;22189;-76
2023/02/17 05:17:04;;;;;;;52.90;29.10;;;;;;;2.39;82.14;100442.38;134072;1300;23170;-76
2023/02/17 05:20:06;;;;;;;53.70;28.70;;;;;;;2.43;81.92;100441.77;134014;1300;22239;-76
2023/02/17 05:23:06;;;;;;;58.60;30.00;;;;;;;2.45;81.97;100441.07;134018;1301;22419;-77
2023/02/17 05:26:08;;;;;;;285.10;39.50;;;;;;;2.48;82.04;100446.64;134013;1289;22457;-77
2023/02/17 05:29:09;;;;;;;55.70;29.70;;;;;;;2.50;82.17;100442.64;134001;1301;22241;-76
2023/02/17 05:32:09;;;;;;;;;;;;;;;2.56;82.61;100441.04;134010;1301;23149;-76
2023/02/17 05:35:10;;;;;;;55.70;29.30;;;;;;;2.65;83.18;100439.30;133996;1301;22388;-76
2023/02/17 05:38:10;;;;;;;56.20;30.20;;;;;;;2.76;83.01;100437.70;134006;1301;23004;-77
2023/02/17 05:41:11;;;;;;;61.70;31.30;;;;;;;2.86;83.00;100428.23;134032;1302;23234;-77
2023/02/17 05:44:12;;;;;;;59.00;32.10;;;;;;;2.97;82.97;100430.59;134013;1299;22392;-76
2023/02/17 05:47:12;;;;;;;60.10;31.60;;;;;;;3.04;83.15;100426.22;133932;1299;126032;-76
2023/02/17 05:50:13;;;;;;;58.40;31.70;;;;;;;3.12;83.21;100430.00;134007;1301;22387;-74
2023/02/17 05:53:13;;;;;;;58.20;31.70;;;;;;;3.20;83.08;100422.16;134024;1301;22445;-73
2023/02/17 05:56:14;;;;;;;56.30;31.30;;;;;;;3.27;83.07;100419.89;134024;1300;22286;-76
2023/02/17 05:59:15;;;;;;;53.30;30.10;;;;;;;3.33;83.23;100417.32;134032;1301;22379;-75
2023/02/17 06:02:15;;;;;;;62.20;30.40;;;;;;;3.40;83.06;100414.54;133951;1301;22985;-75
2023/02/17 06:05:16;;;;;;;57.40;31.20;;;;;;;3.47;83.40;100415.07;134005;1301;22352;-74
2023/02/17 06:08:16;;;;;;;60.20;31.20;;;;;;;3.53;83.20;100412.98;133984;1302;22491;-79
2023/02/17 06:11:17;;;;;;;61.30;31.30;;;;;;;3.59;83.17;100410.10;134002;1302;22501;-76
2023/02/17 06:14:18;;;;;;;56.70;29.80;;;;;;;3.65;83.14;100407.78;133964;1301;22440;-75
2023/02/17 06:17:18;;;;;;;61.00;31.80;;;;;;;3.71;83.07;100408.17;134010;1288;22396;-75
2023/02/17 06:20:19;;;;;;;54.10;29.50;;;;;;;3.78;83.19;100404.00;133997;1300;22380;-75
2023/02/17 06:23:19;;;;;;;53.10;30.70;;;;;;;3.86;83.21;100403.04;133978;1301;22321;-75
2023/02/17 06:26:20;;;;;;;59.40;30.70;;;;;;;3.94;83.03;100405.70;133971;1302;22473;-75
2023/02/17 06:29:21;;;;;;;;;;;;;;;4.02;83.20;100406.70;133977;1301;22663;-74
2023/02/17 06:32:21;;;;;;;54.40;29.60;;;;;;;4.09;83.08;100410.22;133962;1301;22295;-75
2023/02/17 06:35:22;;;;;;;53.00;29.70;;;;;;;4.14;83.19;100413.84;133962;1301;22575;-75
2023/02/17 06:38:22;;;;;;;52.80;29.50;;;;;;;4.19;83.00;100419.61;133938;1300;22366;-75
2023/02/17 06:41:23;;;;;;;48.60;28.80;;;;;;;4.21;83.02;100423.23;133985;1301;22485;-75
2023/02/17 06:44:24;;;;;;;54.40;29.70;;;;;;;4.24;83.01;100429.39;133968;1301;24164;-74
2023/02/17 06:47:24;;;;;;;54.60;30.00;;;;;;;4.24;83.26;100432.48;134008;1299;22392;-74
2023/02/17 06:50:25;;;;;;;54.10;30.00;;;;;;;4.24;83.41;100433.42;133954;1302;22371;-75
2023/02/17 06:53:26;;;;;;;52.30;30.70;;;;;;;4.23;83.29;100431.02;133933;1301;23157;-75
2023/02/17 06:56:26;;;;;;;58.30;30.40;;;;;;;4.22;83.57;100424.77;133949;1301;22382;-74
2023/02/17 06:59:27;;;;;;;59.70;32.10;;;;;;;4.24;83.95;100419.52;133971;1301;22438;-75
2023/02/17 07:02:27;;;;;;;58.60;32.30;;;;;;;4.27;83.95;100416.98;133961;1304;22218;-75
2023/02/17 07:05:28;;;;;;;61.40;33.40;;;;;;;4.31;84.16;100413.39;134021;1302;23208;-75
2023/02/17 07:08:29;;;;;;;54.80;33.00;;;;;;;4.35;84.36;100407.31;134047;1299;22509;-72
2023/02/17 07:11:31;;;;;;;;;;;;;;;4.38;84.31;100407.27;133721;1300;22606;-74
2023/02/17 07:14:34;;;;;;;63.00;33.00;;;;;;;4.41;84.44;100407.38;134000;1305;22467;-76
2023/02/17 07:17:34;;;;;;;63.80;34.90;;;;;;;4.44;84.57;100407.80;133977;1299;22459;-76
2023/02/17 07:20:35;;;;;;;58.50;34.70;;;;;;;4.47;84.64;100411.79;134007;1302;23313;-75
2023/02/17 07:23:37;;;;;;;64.30;35.40;;;;;;;4.52;84.76;100412.48;133923;1300;23273;-76
2023/02/17 07:26:38;;;;;;;63.70;34.70;;;;;;;4.55;84.84;100411.38;133953;1299;22476;-76
2023/02/17 07:29:39;;;;;;;62.50;34.80;;;;;;;4.58;84.82;100411.46;133951;1302;22385;-75
2023/02/17 07:32:40;;;;;;;75.30;40.50;;;;;;;4.60;85.02;100409.77;133950;1301;22916;-75
2023/02/17 07:35:44;;;;;;;64.00;33.90;;;;;;;4.61;85.03;100416.14;133977;1305;22199;-75
2023/02/17 07:38:46;;;;;;;65.60;36.60;;;;;;;4.62;85.25;100405.89;133959;1305;22378;-74
2023/02/17 07:41:46;;;;;;;75.50;41.40;;;;;;;4.63;85.15;100408.81;133980;1301;22662;-74
2023/02/17 07:44:51;;;;;;;74.80;35.80;;;;;;;4.65;85.30;100396.73;133947;1299;22379;-74
2023/02/17 07:47:52;;;;;;;90.70;48.90;;;;;;;4.67;85.31;100390.40;134012;1301;22476;-74
2023/02/17 07:50:53;;;;;;;58.80;32.10;;;;;;;4.71;85.44;100389.25;133972;1301;22513;-74
2023/02/17 07:53:53;;;;;;;71.80;38.30;;;;;;;4.74;85.60;100388.27;134005;1301;22389;-76
2023/02/17 07:56:54;;;;;;;;;;;;;;;4.78;85.50;100383.23;133959;1302;22473;-74
2023/02/17 07:59:54;;;;;;;51.90;30.90;;;;;;;4.82;85.54;100378.55;133931;1303;23450;-74
2023/02/17 08:02:55;;;;;;;55.30;31.00;;;;;;;4.86;85.57;100380.12;133943;1302;23284;-74
2023/02/17 08:05:56;;;;;;;59.00;32.10;;;;;;;4.91;85.57;100378.85;133984;1304;22465;-74
2023/02/17 08:15:37;;;;;;;57.20;32.10;;;;;;;5.05;85.26;100368.11;133961;1302;22518;-74
2023/02/17 08:18:38;;;;;;;73.10;39.20;;;;;;;5.09;85.21;100363.92;133984;1302;22564;-74
2023/02/17 08:21:38;;;;;;;75.10;38.80;;;;;;;5.14;85.24;100362.27;133934;1301;22507;-74
2023/02/17 08:24:39;;;;;;;72.50;36.80;;;;;;;5.20;85.08;100361.11;133980;1307;23369;-74
2023/02/17 08:27:40;;;;;;;76.90;39.60;;;;;;;5.25;85.15;100359.79;133935;1302;23101;-74
2023/02/17 08:30:41;;;;;;;79.40;40.00;;;;;;;5.29;84.97;100364.55;133989;1302;23250;-74
2023/02/17 08:33:41;;;;;;;70.50;38.10;;;;;;;5.33;84.91;100361.95;133993;1301;23387;-74
2023/02/17 08:36:43;;;;;;;64.40;34.30;;;;;;;5.37;84.89;100361.08;134007;1302;22380;-74
2023/02/17 08:39:43;;;;;;;56.60;30.80;;;;;;;5.40;84.75;100358.33;133701;1300;22631;-74
2023/02/17 08:42:44;;;;;;;60.60;33.80;;;;;;;5.45;84.69;100360.60;133952;1301;22398;-75
2023/02/17 08:45:45;;;;;;;66.20;35.40;;;;;;;5.51;84.68;100353.64;133963;1300;22356;-74
2023/02/17 08:48:46;;;;;;;54.90;31.10;;;;;;;5.56;84.81;100347.05;133934;1302;22484;-75
2023/02/17 08:51:47;;;;;;;70.80;38.60;;;;;;;5.62;84.47;100340.41;133937;1301;23719;-74
2023/02/17 08:54:48;;;;;;;67.90;34.10;;;;;;;5.69;84.47;100343.80;133994;1301;22385;-74
2023/02/17 08:57:49;;;;;;;65.10;33.10;;;;;;;5.76;84.38;100347.06;133967;1302;22966;-74
2023/02/17 09:00:49;;;;;;;69.90;37.10;;;;;;;5.83;84.58;100349.15;133967;1302;22408;-74
2023/02/17 09:03:52;;;;;;;79.10;40.70;;;;;;;5.87;84.59;100349.50;133973;1300;22534;-74
2023/02/17 09:06:57;;;;;;;63.70;33.70;;;;;;;5.91;84.72;100350.03;133992;1302;23308;-74
2023/02/17 09:09:57;;;;;;;69.70;36.10;;;;;;;5.94;84.68;100345.38;133917;1301;22512;-74
2023/02/17 09:12:58;;;;;;;61.90;34.30;;;;;;;5.98;84.52;100342.85;133966;1301;22514;-74
2023/02/17 09:15:59;;;;;;;47.60;28.50;;;;;;;6.00;84.41;100345.42;133963;1300;23093;-74
2023/02/17 09:18:59;;;;;;;53.00;30.20;;;;;;;6.03;84.52;100343.91;133938;1305;22646;-74
2023/02/17 09:22:00;;;;;;;53.20;31.20;;;;;;;6.07;84.59;100344.30;133953;1301;23205;-74
2023/02/17 09:25:00;;;;;;;48.50;27.70;;;;;;;6.11;84.58;100342.77;133974;1301;23575;-75
2023/02/17 09:28:01;;;;;;;51.30;29.30;;;;;;;6.14;84.30;100343.51;133959;1302;23159;-74
2023/02/17 09:31:09;;;;;;;53.40;30.40;;;;;;;6.17;84.34;100342.59;133963;1288;22461;-75
2023/02/17 09:34:09;;;;;;;51.40;30.40;;;;;;;6.20;84.50;100343.16;133960;1301;23034;-75
2023/02/17 09:37:11;;;;;;;52.40;29.40;;;;;;;6.22;84.51;100339.30;134000;1302;22390;-74
2023/02/17 09:40:22;;;;;;;54.80;29.40;;;;;;;6.23;84.64;100330.65;134001;1301;22542;-75
2023/02/17 09:43:28;;;;;;;47.50;28.40;;;;;;;6.23;84.71;100324.79;133997;1301;22203;-75
2023/02/17 09:46:40;;;;;;;47.00;28.10;;;;;;;6.25;84.60;100317.11;133952;1302;23117;-75
2023/02/17 09:49:47;;;;;;;44.70;28.10;;;;;;;6.26;84.56;100315.98;134008;1302;22466;-75
2023/02/17 09:53:03;;;;;;;45.10;25.90;;;;;;;6.27;84.73;100317.75;133995;1292;22390;-75
2023/02/17 09:56:08;;;;;;;48.90;27.20;;;;;;;6.29;84.48;100317.06;133893;1301;22475;-75
2023/02/17 09:59:36;;;;;;;45.90;25.80;;;;;;;6.32;84.41;100317.52;133950;1301;22494;-75
2023/02/17 10:02:49;;;;;;;41.80;26.20;;;;;;;6.35;84.59;100314.84;133715;1301;22235;-76
2023/02/17 10:06:06;;;;;;;44.20;26.20;;;;;;;6.36;84.45;100310.16;133971;1301;23227;-76
2023/02/17 10:09:48;;;;;;;45.00;25.10;;;;;;;6.40;84.25;100307.19;133963;1301;22482;-75
2023/02/17 10:12:59;;;;;;;61.40;34.40;;;;;;;6.43;84.21;100302.00;133764;1301;23216;-75
2023/02/17 10:16:03;;;;;;;;;;;;;;;6.45;84.30;100299.36;134056;1300;23199;-75
2023/02/17 10:19:12;;;;;;;67.70;36.70;;;;;;;6.47;84.13;100292.33;133968;1301;22509;-77
2023/02/17 10:22:16;;;;;;;62.40;35.60;;;;;;;6.48;84.16;100290.52;134004;1300;22492;-75
2023/02/17 10:25:30;;;;;;;61.20;33.50;;;;;;;6.48;83.87;100281.33;133975;1299;22331;-75
2023/02/17 10:28:49;;;;;;;48.30;28.60;;;;;;;6.49;83.95;100275.94;133972;1301;22196;-75
2023/02/17 10:32:21;;;;;;;49.80;29.90;;;;;;;6.50;84.03;100275.38;133975;1301;22510;-75
2023/02/17 10:35:39;;;;;;;46.40;29.60;;;;;;;6.51;83.92;100267.89;133973;1301;22539;-75
2023/02/17 10:38:54;;;;;;;42.80;26.40;;;;;;;6.54;83.87;100262.88;133952;1299;22456;-75
2023/02/17 10:41:55;;;;;;;42.90;27.20;;;;;;;6.56;83.91;100254.78;133963;1305;22393;-75
2023/02/17 10:45:04;;;;;;;37.80;25.20;;;;;;;6.59;83.84;100253.28;133971;1302;22219;-75
2023/02/17 10:48:08;;;;;;;40.40;26.20;;;;;;;6.63;83.64;100250.30;134002;1302;24191;-75
2023/02/17 10:51:14;;;;;;;39.80;22.90;;;;;;;6.67;83.64;100246.91;133966;1301;22387;-75
2023/02/17 10:54:29;;;;;;;37.90;22.30;;;;;;;6.71;83.54;100237.39;133711;1301;22448;-75
2023/02/17 10:57:37;;;;;;;34.00;21.40;;;;;;;6.75;83.31;100235.32;133691;1302;22477;-75
2023/02/17 11:00:40;;;;;;;34.00;20.60;;;;;;;6.78;83.20;100220.48;134037;1301;22532;-75
2023/02/17 11:03:41;;;;;;;33.30;21.60;;;;;;;6.81;82.84;100206.81;133939;1301;22508;-75
2023/02/17 11:06:48;;;;;;;34.50;22.20;;;;;;;6.83;82.99;100203.84;134024;1300;22519;-75
2023/02/17 11:09:53;;;;;;;40.10;24.10;;;;;;;6.85;82.88;100198.04;133959;1301;22410;-76
2023/02/17 11:12:57;;;;;;;36.20;22.20;;;;;;;6.87;82.77;100189.75;133979;1301;22387;-75
2023/02/17 11:15:59;;;;;;;31.50;20.80;;;;;;;6.89;82.48;100182.70;134018;1301;24817;-75
2023/02/17 11:19:00;;;;;;;43.90;24.80;;;;;;;6.93;82.40;100177.42;133987;1301;22386;-77
2023/02/17 11:22:05;;;;;;;;;;;;;;;6.97;82.49;100171.91;134010;1301;23347;-75
2023/02/17 11:25:24;;;;;;;39.10;20.60;;;;;;;7.04;82.57;100166.60;133988;1301;23091;-75
2023/02/17 11:28:28;;;;;;;67.00;25.20;;;;;;;7.11;82.29;100160.58;134018;1298;22367;-76
2023/02/17 11:31:30;;;;;;;47.00;26.70;;;;;;;7.19;82.60;100161.98;134021;1301;22339;-75
2023/02/17 11:34:33;;;;;;;34.00;21.50;;;;;;;7.26;82.24;100148.00;133982;1300;22395;-76
2023/02/17 11:37:42;;;;;;;34.20;21.50;;;;;;;7.31;82.17;100145.50;134006;1299;23117;-75
2023/02/17 11:41:03;;;;;;;31.70;20.50;;;;;;;7.36;82.16;100140.98;133995;1300;22466;-75
2023/02/17 11:44:07;;;;;;;29.80;19.10;;;;;;;7.41;81.97;100131.02;133739;1300;23181;-75
2023/02/17 11:47:14;;;;;;;30.80;18.10;;;;;;;7.45;82.02;100119.93;133959;1301;22521;-76
2023/02/17 11:50:30;;;;;;;27.60;18.20;;;;;;;7.51;82.22;100115.48;133975;1300;23242;-75
2023/02/17 11:54:13;;;;;;;27.70;18.70;;;;;;;7.59;81.85;100106.11;133988;1301;22390;-75
2023/02/17 11:57:23;;;;;;;26.90;17.60;;;;;;;7.66;81.99;100102.91;133920;1301;22246;-75
2023/02/17 12:00:29;;;;;;;26.80;17.80;;;;;;;7.72;82.08;100090.04;133972;1301;22473;-75
2023/02/17 12:04:07;;;;;;;24.50;16.70;;;;;;;7.78;82.01;100086.77;133963;1301;22439;-76
2023/02/17 12:07:30;;;;;;;22.00;15.50;;;;;;;7.90;81.72;100076.13;133951;1301;23223;-75
2023/02/17 12:10:39;;;;;;;25.80;16.30;;;;;;;7.99;81.79;100068.88;133956;1300;22573;-75
2023/02/17 12:14:17;;;;;;;22.90;15.40;;;;;;;8.08;81.68;100065.19;133947;1301;22419;-75
2023/02/17 12:17:43;;;;;;;21.90;14.80;;;;;;;8.20;81.65;100061.73;133976;1301;22305;-75
2023/02/17 12:21:11;;;;;;;20.00;14.10;;;;;;;8.27;80.99;100048.10;133930;1302;22380;-76
2023/02/17 12:24:33;;;;;;;24.40;15.50;;;;;;;8.34;81.30;100041.45;134011;1301;23393;-75
2023/02/17 12:28:08;;;;;;;22.00;14.20;;;;;;;8.41;81.06;100040.91;133995;1300;22342;-75
2023/02/17 12:31:14;;;;;;;24.20;15.50;;;;;;;8.47;80.95;100033.41;133975;1301;22377;-75
2023/02/17 12:34:32;;;;;;;25.70;16.10;;;;;;;8.52;80.73;100027.49;133977;1300;23210;-76
2023/02/17 12:37:59;;;;;;;23.70;14.80;;;;;;;8.54;80.67;100026.61;133968;1307;22464;-76
2023/02/17 12:41:09;;;;;;;21.40;14.20;;;;;;;8.55;80.70;100017.20;133976;1301;22178;-75
2023/02/17 12:44:21;;;;;;;20.00;13.50;;;;;;;8.56;80.63;100019.71;133990;1299;22421;-76
2023/02/17 12:47:33;;;;;;;17.80;12.50;;;;;;;8.55;80.61;100012.96;133928;1305;22250;-75
2023/02/17 12:51:18;;;;;;;20.20;12.20;;;;;;;8.55;80.37;100001.81;133952;1301;22448;-75
2023/02/17 12:54:41;;;;;;;16.90;11.10;;;;;;;8.56;80.29;99999.64;133988;1300;22422;-75
2023/02/17 12:57:41;;;;;;;14.00;10.40;;;;;;;8.57;80.32;99995.30;133738;1301;22224;-75
2023/02/17 13:00:50;;;;;;;14.60;9.40;;;;;;;8.57;80.26;99988.25;134000;1300;22402;-75
2023/02/17 13:03:51;;;;;;;12.80;8.90;;;;;;;8.56;79.92;99985.50;133965;1301;22261;-75
2023/02/17 13:07:26;;;;;;;12.30;9.30;;;;;;;8.55;80.08;99984.40;133981;1301;22556;-75
2023/02/17 13:10:26;;;;;;;12.70;9.20;;;;;;;8.51;80.35;99977.88;133660;1301;22393;-75
2023/02/17 13:13:29;;;;;;;10.60;8.30;;;;;;;8.48;80.25;99969.05;133961;1300;22180;-75
2023/02/17 13:16:41;;;;;;;10.90;8.60;;;;;;;8.45;80.34;99965.27;133917;1302;22505;-77
2023/02/17 13:19:42;;;;;;;13.60;9.20;;;;;;;8.45;80.60;99955.80;133945;1300;22408;-77
2023/02/17 13:22:43;;;;;;;13.90;9.30;;;;;;;8.46;80.67;99946.88;133976;1300;22469;-75
2023/02/17 13:25:44;;;;;;;14.10;9.70;;;;;;;8.45;81.05;99945.88;133967;1301;22425;-76
2023/02/17 13:28:45;;;;;;;;;;;;;;;8.46;80.99;99941.71;133961;1299;22482;-75
2023/02/17 13:31:48;;;;;;;14.00;10.40;;;;;;;8.44;81.02;99941.56;133947;1301;23174;-76
2023/02/17 13:34:59;;;;;;;16.70;11.00;;;;;;;8.39;81.71;99933.83;133902;1300;22368;-76
2023/02/17 13:38:00;;;;;;;15.90;11.60;;;;;;;8.35;81.64;99926.82;133944;1300;23340;-75
2023/02/17 13:41:04;;;;;;;17.60;12.10;;;;;;;8.33;81.87;99924.68;133979;1301;22384;-76
2023/02/17 13:44:25;;;;;;;16.80;12.40;;;;;;;8.31;81.95;99922.10;134008;1301;22407;-76
2023/02/17 13:47:26;;;;;;;15.70;12.20;;;;;;;8.25;81.96;99917.96;133956;1301;22344;-75
2023/02/17 13:50:32;;;;;;;16.20;12.70;;;;;;;8.18;81.95;99916.01;133968;1301;22450;-76
2023/02/17 13:53:35;;;;;;;16.90;12.60;;;;;;;8.11;82.03;99911.84;133951;1301;22361;-75
2023/02/17 13:56:35;;;;;;;20.20;14.30;;;;;;;8.05;81.71;99904.30;134020;1299;22375;-75
2023/02/17 13:59:36;;;;;;;21.60;14.90;;;;;;;7.98;81.78;99898.45;133940;1299;22229;-75
2023/02/17 14:02:55;;;;;;;21.60;13.40;;;;;;;7.93;81.68;99892.48;133985;1301;22457;-76
2023/02/17 14:05:58;;;;;;;20.90;14.80;;;;;;;7.90;81.69;99888.91;133923;1301;22449;-75
2023/02/17 14:08:59;;;;;;;20.60;13.40;;;;;;;7.87;81.59;99877.57;133965;1301;22384;-75
2023/02/17 14:12:06;;;;;;;21.30;14.80;;;;;;;7.86;81.61;99876.09;133936;1301;22462;-73
2023/02/17 14:15:15;;;;;;;21.50;14.10;;;;;;;7.84;81.57;99862.20;133996;1301;22159;-72